sensor_id;sensor_type;location;lat;lon;timestamp;temperature;humidity
19359;DHT22;9815;52.334;20.890;2023-07-08T00:01:11;14.60;99.90
19359;DHT22;9815;52.334;20.890;2023-07-08T00:03:42;14.50;99.90
19359;DHT22;9815;52.334;20.890;2023-07-08T00:06:16;14.50;99.90
19359;DHT22;9815;52.334;20.890;2023-07-08T00:08:45;14.50;99.90
19359;DHT22;9815;52.334;20.890;2023-07-08T00:11:15;14.60;99.90
19359;DHT22;9815;52.334;20.890;2023-07-08T00:13:43;14.50;99.90
19359;DHT22;9815;52.334;20.890;2023-07-08T00:16:15;14.50;99.90
19359;DHT22;9815;52.334;20.890;2023-07-08T00:18:47;14.50;99.90
19359;DHT22;9815;52.334;20.890;2023-07-08T00:21:17;14.60;99.90
19359;DHT22;9815;52.334;20.890;2023-07-08T00:23:46;14.60;99.90
19359;DHT22;9815;52.334;20.890;2023-07-08T00:26:18;14.50;99.90
19359;DHT22;9815;52.334;20.890;2023-07-08T00:28:47;14.50;99.90
19359;DHT22;9815;52.334;20.890;2023-07-08T00:31:15;14.40;99.90
19359;DHT22;9815;52.334;20.890;2023-07-08T00:33:53;14.40;99.90
19359;DHT22;9815;52.334;20.890;2023-07-08T00:36:25;14.50;99.90
19359;DHT22;9815;52.334;20.890;2023-07-08T00:38:54;14.40;99.90
19359;DHT22;9815;52.334;20.890;2023-07-08T00:41:25;14.30;99.90
19359;DHT22;9815;52.334;20.890;2023-07-08T00:43:57;14.20;99.90
19359;DHT22;9815;52.334;20.890;2023-07-08T00:46:34;14.20;99.90
19359;DHT22;9815;52.334;20.890;2023-07-08T00:49:17;14.20;99.90
19359;DHT22;9815;52.334;20.890;2023-07-08T00:51:46;14.30;99.90
19359;DHT22;9815;52.334;20.890;2023-07-08T00:54:18;14.30;99.90
19359;DHT22;9815;52.334;20.890;2023-07-08T00:56:49;14.30;99.90
19359;DHT22;9815;52.334;20.890;2023-07-08T00:59:23;14.20;99.90
19359;DHT22;9815;52.334;20.890;2023-07-08T01:01:52;14.10;99.90
19359;DHT22;9815;52.334;20.890;2023-07-08T01:04:25;14.20;99.90
19359;DHT22;9815;52.334;20.890;2023-07-08T01:06:58;14.20;99.90
19359;DHT22;9815;52.334;20.890;2023-07-08T01:09:34;14.20;99.90
19359;DHT22;9815;52.334;20.890;2023-07-08T01:12:08;14.20;99.90
19359;DHT22;9815;52.334;20.890;2023-07-08T01:14:38;14.20;99.90
19359;DHT22;9815;52.334;20.890;2023-07-08T01:17:10;14.10;99.90
19359;DHT22;9815;52.334;20.890;2023-07-08T01:19:43;14.10;99.90
19359;DHT22;9815;52.334;20.890;2023-07-08T01:22:14;14.10;99.90
19359;DHT22;9815;52.334;20.890;2023-07-08T01:24:44;13.90;99.90
19359;DHT22;9815;52.334;20.890;2023-07-08T01:27:16;14.00;99.90
19359;DHT22;9815;52.334;20.890;2023-07-08T01:29:46;13.90;99.90
19359;DHT22;9815;52.334;20.890;2023-07-08T01:32:15;14.00;99.90
19359;DHT22;9815;52.334;20.890;2023-07-08T01:34:46;13.90;99.90
19359;DHT22;9815;52.334;20.890;2023-07-08T01:37:34;13.90;99.90
19359;DHT22;9815;52.334;20.890;2023-07-08T01:40:22;13.90;99.90
19359;DHT22;9815;52.334;20.890;2023-07-08T01:42:52;13.90;99.90
19359;DHT22;9815;52.334;20.890;2023-07-08T01:45:24;14.00;99.90
19359;DHT22;9815;52.334;20.890;2023-07-08T01:47:56;14.00;99.90
19359;DHT22;9815;52.334;20.890;2023-07-08T01:50:25;14.00;99.90
19359;DHT22;9815;52.334;20.890;2023-07-08T01:52:58;14.00;99.90
19359;DHT22;9815;52.334;20.890;2023-07-08T01:55:27;14.00;99.90
19359;DHT22;9815;52.334;20.890;2023-07-08T01:57:57;14.00;99.90
19359;DHT22;9815;52.334;20.890;2023-07-08T02:00:26;13.90;99.90
19359;DHT22;9815;52.334;20.890;2023-07-08T02:02:54;13.90;99.90
19359;DHT22;9815;52.334;20.890;2023-07-08T02:05:23;13.90;99.90
19359;DHT22;9815;52.334;20.890;2023-07-08T02:07:51;13.90;99.90
19359;DHT22;9815;52.334;20.890;2023-07-08T02:10:21;13.90;99.90
19359;DHT22;9815;52.334;20.890;2023-07-08T02:12:49;13.90;99.90
19359;DHT22;9815;52.334;20.890;2023-07-08T02:15:18;13.90;99.90
19359;DHT22;9815;52.334;20.890;2023-07-08T02:17:46;13.90;99.90
19359;DHT22;9815;52.334;20.890;2023-07-08T02:20:16;13.90;99.90
19359;DHT22;9815;52.334;20.890;2023-07-08T02:22:44;13.90;99.90
19359;DHT22;9815;52.334;20.890;2023-07-08T02:25:12;13.80;99.90
19359;DHT22;9815;52.334;20.890;2023-07-08T02:27:42;13.70;99.90
19359;DHT22;9815;52.334;20.890;2023-07-08T02:30:11;13.60;99.90
19359;DHT22;9815;52.334;20.890;2023-07-08T02:32:39;13.60;99.90
19359;DHT22;9815;52.334;20.890;2023-07-08T02:35:08;13.60;99.90
19359;DHT22;9815;52.334;20.890;2023-07-08T02:37:39;13.70;99.90
19359;DHT22;9815;52.334;20.890;2023-07-08T02:40:08;13.70;99.90
19359;DHT22;9815;52.334;20.890;2023-07-08T02:42:37;13.70;99.90
19359;DHT22;9815;52.334;20.890;2023-07-08T02:45:08;13.70;99.90
19359;DHT22;9815;52.334;20.890;2023-07-08T02:47:36;13.70;99.90
19359;DHT22;9815;52.334;20.890;2023-07-08T02:50:06;13.70;99.90
19359;DHT22;9815;52.334;20.890;2023-07-08T02:52:36;13.70;99.90
19359;DHT22;9815;52.334;20.890;2023-07-08T02:55:05;13.70;99.90
19359;DHT22;9815;52.334;20.890;2023-07-08T02:57:33;13.60;99.90
19359;DHT22;9815;52.334;20.890;2023-07-08T03:00:02;13.60;99.90
19359;DHT22;9815;52.334;20.890;2023-07-08T03:02:35;13.70;99.90
19359;DHT22;9815;52.334;20.890;2023-07-08T03:05:03;13.70;99.90
19359;DHT22;9815;52.334;20.890;2023-07-08T03:07:32;13.70;99.90
19359;DHT22;9815;52.334;20.890;2023-07-08T03:10:00;13.80;99.90
19359;DHT22;9815;52.334;20.890;2023-07-08T03:12:29;13.80;99.90
19359;DHT22;9815;52.334;20.890;2023-07-08T03:14:58;13.90;99.90
19359;DHT22;9815;52.334;20.890;2023-07-08T03:17:26;13.90;99.90
19359;DHT22;9815;52.334;20.890;2023-07-08T03:19:56;14.00;99.90
19359;DHT22;9815;52.334;20.890;2023-07-08T03:22:24;14.00;99.90
19359;DHT22;9815;52.334;20.890;2023-07-08T03:24:52;13.90;99.90
19359;DHT22;9815;52.334;20.890;2023-07-08T03:27:21;14.00;99.90
19359;DHT22;9815;52.334;20.890;2023-07-08T03:29:50;14.00;99.90
19359;DHT22;9815;52.334;20.890;2023-07-08T03:32:18;14.00;99.90
19359;DHT22;9815;52.334;20.890;2023-07-08T03:34:47;14.00;99.90
19359;DHT22;9815;52.334;20.890;2023-07-08T03:37:17;14.10;99.90
19359;DHT22;9815;52.334;20.890;2023-07-08T03:39:45;14.10;99.90
19359;DHT22;9815;52.334;20.890;2023-07-08T03:42:13;14.10;99.90
19359;DHT22;9815;52.334;20.890;2023-07-08T03:44:42;14.20;99.90
19359;DHT22;9815;52.334;20.890;2023-07-08T03:47:10;14.20;99.90
19359;DHT22;9815;52.334;20.890;2023-07-08T03:49:39;14.20;99.90
19359;DHT22;9815;52.334;20.890;2023-07-08T03:52:10;14.30;99.90
19359;DHT22;9815;52.334;20.890;2023-07-08T03:54:42;14.30;99.90
19359;DHT22;9815;52.334;20.890;2023-07-08T03:57:11;14.30;99.90
19359;DHT22;9815;52.334;20.890;2023-07-08T03:59:39;14.40;99.90
19359;DHT22;9815;52.334;20.890;2023-07-08T04:02:09;14.40;99.90
19359;DHT22;9815;52.334;20.890;2023-07-08T04:04:38;14.50;99.90
19359;DHT22;9815;52.334;20.890;2023-07-08T04:07:08;14.50;99.90
19359;DHT22;9815;52.334;20.890;2023-07-08T04:09:39;14.60;99.90
19359;DHT22;9815;52.334;20.890;2023-07-08T04:12:14;14.60;99.90
19359;DHT22;9815;52.334;20.890;2023-07-08T04:14:43;14.80;99.90
19359;DHT22;9815;52.334;20.890;2023-07-08T04:17:11;14.80;99.90
19359;DHT22;9815;52.334;20.890;2023-07-08T04:19:40;14.90;99.90
19359;DHT22;9815;52.334;20.890;2023-07-08T04:22:11;15.00;99.90
19359;DHT22;9815;52.334;20.890;2023-07-08T04:24:39;15.10;99.90
19359;DHT22;9815;52.334;20.890;2023-07-08T04:27:11;15.20;99.90
19359;DHT22;9815;52.334;20.890;2023-07-08T04:29:41;15.30;99.90
19359;DHT22;9815;52.334;20.890;2023-07-08T04:32:09;15.40;99.90
19359;DHT22;9815;52.334;20.890;2023-07-08T04:34:37;15.50;99.90
19359;DHT22;9815;52.334;20.890;2023-07-08T04:37:07;15.70;99.90
19359;DHT22;9815;52.334;20.890;2023-07-08T04:39:36;15.90;99.90
19359;DHT22;9815;52.334;20.890;2023-07-08T04:42:05;16.10;99.90
19359;DHT22;9815;52.334;20.890;2023-07-08T04:44:34;16.20;99.90
19359;DHT22;9815;52.334;20.890;2023-07-08T04:47:03;16.30;99.90
19359;DHT22;9815;52.334;20.890;2023-07-08T04:49:31;16.40;99.90
19359;DHT22;9815;52.334;20.890;2023-07-08T04:52:01;16.60;99.90
19359;DHT22;9815;52.334;20.890;2023-07-08T04:54:30;16.70;99.90
19359;DHT22;9815;52.334;20.890;2023-07-08T04:56:58;16.80;99.90
19359;DHT22;9815;52.334;20.890;2023-07-08T04:59:26;17.00;99.90
19359;DHT22;9815;52.334;20.890;2023-07-08T05:01:56;17.10;99.90
19359;DHT22;9815;52.334;20.890;2023-07-08T05:04:24;17.30;99.90
19359;DHT22;9815;52.334;20.890;2023-07-08T05:06:53;17.50;99.90
19359;DHT22;9815;52.334;20.890;2023-07-08T05:09:21;17.60;99.90
19359;DHT22;9815;52.334;20.890;2023-07-08T05:11:53;17.70;98.60
19359;DHT22;9815;52.334;20.890;2023-07-08T05:14:21;17.90;99.40
19359;DHT22;9815;52.334;20.890;2023-07-08T05:16:49;18.00;98.20
19359;DHT22;9815;52.334;20.890;2023-07-08T05:19:19;18.10;99.50
19359;DHT22;9815;52.334;20.890;2023-07-08T05:21:49;18.20;98.40
19359;DHT22;9815;52.334;20.890;2023-07-08T05:24:17;18.30;90.00
19359;DHT22;9815;52.334;20.890;2023-07-08T05:26:45;18.40;83.60
19359;DHT22;9815;52.334;20.890;2023-07-08T05:29:14;18.50;72.20
19359;DHT22;9815;52.334;20.890;2023-07-08T05:31:42;18.70;66.50
19359;DHT22;9815;52.334;20.890;2023-07-08T05:34:14;18.80;71.20
19359;DHT22;9815;52.334;20.890;2023-07-08T05:36:44;18.90;61.50
19359;DHT22;9815;52.334;20.890;2023-07-08T05:39:13;19.00;61.30
19359;DHT22;9815;52.334;20.890;2023-07-08T05:41:41;19.10;64.10
19359;DHT22;9815;52.334;20.890;2023-07-08T05:44:09;19.20;61.70
19359;DHT22;9815;52.334;20.890;2023-07-08T05:46:37;19.30;61.40
19359;DHT22;9815;52.334;20.890;2023-07-08T05:49:06;19.40;54.90
19359;DHT22;9815;52.334;20.890;2023-07-08T05:51:35;19.50;56.60
19359;DHT22;9815;52.334;20.890;2023-07-08T05:54:05;19.60;52.30
19359;DHT22;9815;52.334;20.890;2023-07-08T05:56:34;19.80;50.00
19359;DHT22;9815;52.334;20.890;2023-07-08T05:59:02;20.00;44.70
19359;DHT22;9815;52.334;20.890;2023-07-08T06:01:31;20.10;44.80
19359;DHT22;9815;52.334;20.890;2023-07-08T06:03:59;20.20;43.70
19359;DHT22;9815;52.334;20.890;2023-07-08T06:06:28;20.30;36.00
19359;DHT22;9815;52.334;20.890;2023-07-08T06:08:56;20.40;35.70
19359;DHT22;9815;52.334;20.890;2023-07-08T06:11:26;20.60;35.10
19359;DHT22;9815;52.334;20.890;2023-07-08T06:13:57;20.70;34.00
19359;DHT22;9815;52.334;20.890;2023-07-08T06:16:27;20.80;33.70
19359;DHT22;9815;52.334;20.890;2023-07-08T06:19:07;20.90;31.30
19359;DHT22;9815;52.334;20.890;2023-07-08T06:21:35;21.10;30.00
19359;DHT22;9815;52.334;20.890;2023-07-08T06:24:04;21.20;29.60
19359;DHT22;9815;52.334;20.890;2023-07-08T06:26:34;21.30;29.90
19359;DHT22;9815;52.334;20.890;2023-07-08T06:29:02;21.40;29.30
19359;DHT22;9815;52.334;20.890;2023-07-08T06:31:31;21.50;29.00
19359;DHT22;9815;52.334;20.890;2023-07-08T06:34:00;21.60;28.90
19359;DHT22;9815;52.334;20.890;2023-07-08T06:36:28;21.70;28.90
19359;DHT22;9815;52.334;20.890;2023-07-08T06:38:56;21.80;28.70
19359;DHT22;9815;52.334;20.890;2023-07-08T06:41:25;21.80;28.40
19359;DHT22;9815;52.334;20.890;2023-07-08T06:43:55;21.90;28.90
19359;DHT22;9815;52.334;20.890;2023-07-08T06:46:26;22.10;26.30
19359;DHT22;9815;52.334;20.890;2023-07-08T06:48:55;22.20;25.70
19359;DHT22;9815;52.334;20.890;2023-07-08T06:51:24;22.20;23.10
19359;DHT22;9815;52.334;20.890;2023-07-08T06:53:52;22.40;23.30
19359;DHT22;9815;52.334;20.890;2023-07-08T06:56:21;22.50;24.40
19359;DHT22;9815;52.334;20.890;2023-07-08T06:58:49;22.60;21.60
19359;DHT22;9815;52.334;20.890;2023-07-08T07:01:19;22.60;21.30
19359;DHT22;9815;52.334;20.890;2023-07-08T07:03:47;22.70;20.10
19359;DHT22;9815;52.334;20.890;2023-07-08T07:06:16;22.80;19.60
19359;DHT22;9815;52.334;20.890;2023-07-08T07:08:44;22.90;20.00
19359;DHT22;9815;52.334;20.890;2023-07-08T07:11:12;23.00;19.80
19359;DHT22;9815;52.334;20.890;2023-07-08T07:13:40;23.00;19.30
19359;DHT22;9815;52.334;20.890;2023-07-08T07:16:09;23.20;19.30
19359;DHT22;9815;52.334;20.890;2023-07-08T07:18:39;23.20;19.80
19359;DHT22;9815;52.334;20.890;2023-07-08T07:21:07;23.30;20.10
19359;DHT22;9815;52.334;20.890;2023-07-08T07:23:35;23.40;21.30
19359;DHT22;9815;52.334;20.890;2023-07-08T07:26:04;23.40;20.10
19359;DHT22;9815;52.334;20.890;2023-07-08T07:28:32;23.50;20.00
19359;DHT22;9815;52.334;20.890;2023-07-08T07:31:00;23.60;19.90
19359;DHT22;9815;52.334;20.890;2023-07-08T07:33:29;23.70;19.20
19359;DHT22;9815;52.334;20.890;2023-07-08T07:36:04;23.80;19.50
19359;DHT22;9815;52.334;20.890;2023-07-08T07:38:33;23.90;18.50
19359;DHT22;9815;52.334;20.890;2023-07-08T07:41:01;24.00;18.80
19359;DHT22;9815;52.334;20.890;2023-07-08T07:43:33;24.20;18.80
19359;DHT22;9815;52.334;20.890;2023-07-08T07:46:01;24.40;17.60
19359;DHT22;9815;52.334;20.890;2023-07-08T07:48:32;24.70;17.60
19359;DHT22;9815;52.334;20.890;2023-07-08T07:51:02;25.30;16.00
19359;DHT22;9815;52.334;20.890;2023-07-08T07:53:31;26.00;14.50
19359;DHT22;9815;52.334;20.890;2023-07-08T07:56:01;26.60;13.50
19359;DHT22;9815;52.334;20.890;2023-07-08T07:58:31;26.90;12.40
19359;DHT22;9815;52.334;20.890;2023-07-08T08:01:00;27.00;12.70
19359;DHT22;9815;52.334;20.890;2023-07-08T08:03:29;27.20;13.30
19359;DHT22;9815;52.334;20.890;2023-07-08T08:05:58;27.10;13.30
19359;DHT22;9815;52.334;20.890;2023-07-08T08:08:28;27.20;12.40
19359;DHT22;9815;52.334;20.890;2023-07-08T08:10:56;27.20;14.40
19359;DHT22;9815;52.334;20.890;2023-07-08T08:13:26;27.30;15.10
19359;DHT22;9815;52.334;20.890;2023-07-08T08:15:57;27.40;13.60
19359;DHT22;9815;52.334;20.890;2023-07-08T08:18:26;27.50;14.00
19359;DHT22;9815;52.334;20.890;2023-07-08T08:20:55;27.70;12.70
19359;DHT22;9815;52.334;20.890;2023-07-08T08:23:23;27.70;13.10
19359;DHT22;9815;52.334;20.890;2023-07-08T08:25:53;27.80;12.50
19359;DHT22;9815;52.334;20.890;2023-07-08T08:28:21;27.70;13.20
19359;DHT22;9815;52.334;20.890;2023-07-08T08:30:50;27.40;13.80
19359;DHT22;9815;52.334;20.890;2023-07-08T08:33:19;27.40;12.00
19359;DHT22;9815;52.334;20.890;2023-07-08T08:35:48;27.30;13.70
19359;DHT22;9815;52.334;20.890;2023-07-08T08:38:16;27.60;11.60
19359;DHT22;9815;52.334;20.890;2023-07-08T08:40:45;28.00;11.90
19359;DHT22;9815;52.334;20.890;2023-07-08T08:43:18;27.50;12.30
19359;DHT22;9815;52.334;20.890;2023-07-08T08:45:51;27.20;14.20
19359;DHT22;9815;52.334;20.890;2023-07-08T08:48:21;27.20;13.20
19359;DHT22;9815;52.334;20.890;2023-07-08T08:50:52;27.20;13.50
19359;DHT22;9815;52.334;20.890;2023-07-08T08:53:25;26.80;13.20
19359;DHT22;9815;52.334;20.890;2023-07-08T08:55:58;27.00;13.30
19359;DHT22;9815;52.334;20.890;2023-07-08T08:58:38;27.20;13.40
19359;DHT22;9815;52.334;20.890;2023-07-08T09:01:12;27.10;12.70
19359;DHT22;9815;52.334;20.890;2023-07-08T09:03:45;27.30;12.40
19359;DHT22;9815;52.334;20.890;2023-07-08T09:06:19;27.40;11.90
19359;DHT22;9815;52.334;20.890;2023-07-08T09:08:48;27.70;11.70
19359;DHT22;9815;52.334;20.890;2023-07-08T09:11:27;27.40;12.90
19359;DHT22;9815;52.334;20.890;2023-07-08T09:14:00;27.00;12.80
19359;DHT22;9815;52.334;20.890;2023-07-08T09:16:39;26.90;12.60
19359;DHT22;9815;52.334;20.890;2023-07-08T09:19:12;26.60;13.50
19359;DHT22;9815;52.334;20.890;2023-07-08T09:21:45;26.30;14.90
19359;DHT22;9815;52.334;20.890;2023-07-08T09:24:18;26.30;12.90
19359;DHT22;9815;52.334;20.890;2023-07-08T09:26:48;26.10;13.20
19359;DHT22;9815;52.334;20.890;2023-07-08T09:29:21;26.00;14.20
19359;DHT22;9815;52.334;20.890;2023-07-08T09:31:50;25.90;13.50
19359;DHT22;9815;52.334;20.890;2023-07-08T09:34:22;26.70;12.70
19359;DHT22;9815;52.334;20.890;2023-07-08T09:36:51;27.20;12.20
19359;DHT22;9815;52.334;20.890;2023-07-08T09:39:20;27.30;12.50
19359;DHT22;9815;52.334;20.890;2023-07-08T09:41:49;26.80;12.30
19359;DHT22;9815;52.334;20.890;2023-07-08T09:44:23;27.30;12.60
19359;DHT22;9815;52.334;20.890;2023-07-08T09:46:54;28.00;12.00
19359;DHT22;9815;52.334;20.890;2023-07-08T09:49:27;27.90;11.40
19359;DHT22;9815;52.334;20.890;2023-07-08T09:52:03;27.20;12.20
19359;DHT22;9815;52.334;20.890;2023-07-08T09:54:32;26.80;12.50
19359;DHT22;9815;52.334;20.890;2023-07-08T09:57:04;26.40;13.90
19359;DHT22;9815;52.334;20.890;2023-07-08T09:59:41;26.40;14.50
19359;DHT22;9815;52.334;20.890;2023-07-08T10:02:26;26.90;13.20
19359;DHT22;9815;52.334;20.890;2023-07-08T10:04:57;27.90;12.50
19359;DHT22;9815;52.334;20.890;2023-07-08T10:07:28;28.10;11.80
19359;DHT22;9815;52.334;20.890;2023-07-08T10:10:00;28.20;11.60
19359;DHT22;9815;52.334;20.890;2023-07-08T10:12:33;28.70;11.80
19359;DHT22;9815;52.334;20.890;2023-07-08T10:15:16;28.30;10.80
19359;DHT22;9815;52.334;20.890;2023-07-08T10:17:46;27.70;11.30
19359;DHT22;9815;52.334;20.890;2023-07-08T10:20:14;27.50;11.40
19359;DHT22;9815;52.334;20.890;2023-07-08T10:22:52;28.00;11.70
19359;DHT22;9815;52.334;20.890;2023-07-08T10:25:28;28.50;11.00
19359;DHT22;9815;52.334;20.890;2023-07-08T10:28:20;28.30;11.40
19359;DHT22;9815;52.334;20.890;2023-07-08T10:30:58;27.50;11.70
19359;DHT22;9815;52.334;20.890;2023-07-08T10:33:42;27.10;12.80
19359;DHT22;9815;52.334;20.890;2023-07-08T10:36:21;27.70;11.90
19359;DHT22;9815;52.334;20.890;2023-07-08T10:39:23;28.50;10.90
19359;DHT22;9815;52.334;20.890;2023-07-08T10:42:02;29.30;10.40
19359;DHT22;9815;52.334;20.890;2023-07-08T10:44:39;29.90;9.40
19359;DHT22;9815;52.334;20.890;2023-07-08T10:47:22;29.70;9.50
19359;DHT22;9815;52.334;20.890;2023-07-08T10:50:03;29.40;9.40
19359;DHT22;9815;52.334;20.890;2023-07-08T10:52:49;28.30;10.40
19359;DHT22;9815;52.334;20.890;2023-07-08T10:55:28;27.70;10.70
19359;DHT22;9815;52.334;20.890;2023-07-08T10:58:13;28.10;11.00
19359;DHT22;9815;52.334;20.890;2023-07-08T11:00:49;28.60;10.80
19359;DHT22;9815;52.334;20.890;2023-07-08T11:06:26;28.00;10.90
19359;DHT22;9815;52.334;20.890;2023-07-08T11:08:56;27.50;12.20
19359;DHT22;9815;52.334;20.890;2023-07-08T11:11:33;27.30;12.50
19359;DHT22;9815;52.334;20.890;2023-07-08T11:14:18;27.30;12.60
19359;DHT22;9815;52.334;20.890;2023-07-08T11:16:53;27.70;12.30
19359;DHT22;9815;52.334;20.890;2023-07-08T11:19:29;27.60;12.20
19359;DHT22;9815;52.334;20.890;2023-07-08T11:22:04;27.50;12.70
19359;DHT22;9815;52.334;20.890;2023-07-08T11:24:38;27.40;12.70
19359;DHT22;9815;52.334;20.890;2023-07-08T11:27:11;27.20;13.20
19359;DHT22;9815;52.334;20.890;2023-07-08T11:29:49;27.00;12.90
19359;DHT22;9815;52.334;20.890;2023-07-08T11:32:20;26.90;13.20
19359;DHT22;9815;52.334;20.890;2023-07-08T11:34:51;26.90;13.70
19359;DHT22;9815;52.334;20.890;2023-07-08T11:37:22;27.00;14.10
19359;DHT22;9815;52.334;20.890;2023-07-08T11:39:57;27.10;12.90
19359;DHT22;9815;52.334;20.890;2023-07-08T11:42:34;27.00;12.80
19359;DHT22;9815;52.334;20.890;2023-07-08T11:45:08;26.90;13.20
19359;DHT22;9815;52.334;20.890;2023-07-08T11:47:41;27.20;12.40
19359;DHT22;9815;52.334;20.890;2023-07-08T11:50:21;27.50;11.50
19359;DHT22;9815;52.334;20.890;2023-07-08T11:52:54;27.50;11.70
19359;DHT22;9815;52.334;20.890;2023-07-08T11:55:25;27.60;11.60
19359;DHT22;9815;52.334;20.890;2023-07-08T11:57:59;28.20;12.00
19359;DHT22;9815;52.334;20.890;2023-07-08T12:00:31;28.70;11.20
19359;DHT22;9815;52.334;20.890;2023-07-08T12:03:13;29.30;10.40
19359;DHT22;9815;52.334;20.890;2023-07-08T12:05:46;29.80;10.80
19359;DHT22;9815;52.334;20.890;2023-07-08T12:08:18;29.30;9.40
19359;DHT22;9815;52.334;20.890;2023-07-08T12:10:49;28.60;10.40
19359;DHT22;9815;52.334;20.890;2023-07-08T12:13:21;28.10;11.00
19359;DHT22;9815;52.334;20.890;2023-07-08T12:15:50;27.80;11.30
19359;DHT22;9815;52.334;20.890;2023-07-08T12:18:24;27.50;11.70
19359;DHT22;9815;52.334;20.890;2023-07-08T12:20:54;27.60;12.20
19359;DHT22;9815;52.334;20.890;2023-07-08T12:23:25;27.40;11.60
19359;DHT22;9815;52.334;20.890;2023-07-08T12:25:56;27.60;11.50
19359;DHT22;9815;52.334;20.890;2023-07-08T12:28:25;27.80;11.60
19359;DHT22;9815;52.334;20.890;2023-07-08T12:30:53;28.20;11.50
19359;DHT22;9815;52.334;20.890;2023-07-08T12:33:28;28.20;10.60
19359;DHT22;9815;52.334;20.890;2023-07-08T12:35:59;28.10;12.20
19359;DHT22;9815;52.334;20.890;2023-07-08T12:38:31;28.10;11.50
19359;DHT22;9815;52.334;20.890;2023-07-08T12:41:01;28.90;10.60
19359;DHT22;9815;52.334;20.890;2023-07-08T12:43:30;29.40;9.80
19359;DHT22;9815;52.334;20.890;2023-07-08T12:45:58;29.20;9.10
19359;DHT22;9815;52.334;20.890;2023-07-08T12:48:31;29.20;9.60
19359;DHT22;9815;52.334;20.890;2023-07-08T12:51:00;29.20;9.20
19359;DHT22;9815;52.334;20.890;2023-07-08T12:53:30;28.70;9.50
19359;DHT22;9815;52.334;20.890;2023-07-08T12:55:59;28.40;10.00
19359;DHT22;9815;52.334;20.890;2023-07-08T12:58:30;28.80;10.90
19359;DHT22;9815;52.334;20.890;2023-07-08T13:01:01;29.50;10.20
19359;DHT22;9815;52.334;20.890;2023-07-08T13:03:36;29.80;9.20
19359;DHT22;9815;52.334;20.890;2023-07-08T13:06:07;30.10;8.60
19359;DHT22;9815;52.334;20.890;2023-07-08T13:08:39;30.20;8.60
19359;DHT22;9815;52.334;20.890;2023-07-08T13:11:07;30.50;8.70
19359;DHT22;9815;52.334;20.890;2023-07-08T13:13:38;31.00;7.70
19359;DHT22;9815;52.334;20.890;2023-07-08T13:16:09;30.90;7.70
19359;DHT22;9815;52.334;20.890;2023-07-08T13:18:40;30.80;7.90
19359;DHT22;9815;52.334;20.890;2023-07-08T13:21:13;30.90;7.70
19359;DHT22;9815;52.334;20.890;2023-07-08T13:23:43;31.00;7.60
19359;DHT22;9815;52.334;20.890;2023-07-08T13:26:13;31.20;8.10
19359;DHT22;9815;52.334;20.890;2023-07-08T13:28:42;31.30;7.40
19359;DHT22;9815;52.334;20.890;2023-07-08T13:31:17;31.20;7.50
19359;DHT22;9815;52.334;20.890;2023-07-08T13:33:52;30.90;7.40
19359;DHT22;9815;52.334;20.890;2023-07-08T13:36:22;31.20;7.40
19359;DHT22;9815;52.334;20.890;2023-07-08T13:38:53;30.90;7.50
19359;DHT22;9815;52.334;20.890;2023-07-08T13:41:22;30.80;6.90
19359;DHT22;9815;52.334;20.890;2023-07-08T13:43:51;30.30;7.80
19359;DHT22;9815;52.334;20.890;2023-07-08T13:46:29;29.80;8.80
19359;DHT22;9815;52.334;20.890;2023-07-08T13:49:01;29.00;9.40
19359;DHT22;9815;52.334;20.890;2023-07-08T13:51:32;29.00;9.50
19359;DHT22;9815;52.334;20.890;2023-07-08T13:54:13;29.10;9.30
19359;DHT22;9815;52.334;20.890;2023-07-08T13:56:42;29.10;10.20
19359;DHT22;9815;52.334;20.890;2023-07-08T13:59:15;29.00;10.60
19359;DHT22;9815;52.334;20.890;2023-07-08T14:01:44;28.80;9.50
19359;DHT22;9815;52.334;20.890;2023-07-08T14:04:13;28.50;10.10
19359;DHT22;9815;52.334;20.890;2023-07-08T14:06:43;28.30;10.40
19359;DHT22;9815;52.334;20.890;2023-07-08T14:09:15;28.70;9.70
19359;DHT22;9815;52.334;20.890;2023-07-08T14:11:44;28.80;9.20
19359;DHT22;9815;52.334;20.890;2023-07-08T14:14:13;28.70;10.20
19359;DHT22;9815;52.334;20.890;2023-07-08T14:16:43;29.20;9.00
19359;DHT22;9815;52.334;20.890;2023-07-08T14:19:14;29.80;8.80
19359;DHT22;9815;52.334;20.890;2023-07-08T14:21:43;30.50;7.90
19359;DHT22;9815;52.334;20.890;2023-07-08T14:24:14;30.80;8.20
19359;DHT22;9815;52.334;20.890;2023-07-08T14:26:43;31.00;8.60
19359;DHT22;9815;52.334;20.890;2023-07-08T14:29:12;30.90;7.40
19359;DHT22;9815;52.334;20.890;2023-07-08T14:32:04;31.00;7.30
19359;DHT22;9815;52.334;20.890;2023-07-08T14:34:33;30.80;8.10
19359;DHT22;9815;52.334;20.890;2023-07-08T14:37:08;31.40;7.10
19359;DHT22;9815;52.334;20.890;2023-07-08T14:39:40;31.10;7.50
19359;DHT22;9815;52.334;20.890;2023-07-08T14:42:11;31.10;7.00
19359;DHT22;9815;52.334;20.890;2023-07-08T14:44:41;31.10;6.50
19359;DHT22;9815;52.334;20.890;2023-07-08T14:47:12;30.30;7.40
19359;DHT22;9815;52.334;20.890;2023-07-08T14:49:41;30.20;7.60
19359;DHT22;9815;52.334;20.890;2023-07-08T14:52:09;30.50;7.30
19359;DHT22;9815;52.334;20.890;2023-07-08T14:54:39;30.60;7.20
19359;DHT22;9815;52.334;20.890;2023-07-08T14:57:09;30.80;7.30
19359;DHT22;9815;52.334;20.890;2023-07-08T14:59:38;30.60;7.10
19359;DHT22;9815;52.334;20.890;2023-07-08T15:02:18;30.70;7.20
19359;DHT22;9815;52.334;20.890;2023-07-08T15:04:47;30.80;7.30
19359;DHT22;9815;52.334;20.890;2023-07-08T15:07:15;31.00;7.30
19359;DHT22;9815;52.334;20.890;2023-07-08T15:09:45;30.90;7.10
19359;DHT22;9815;52.334;20.890;2023-07-08T15:12:13;30.70;7.00
19359;DHT22;9815;52.334;20.890;2023-07-08T15:14:41;30.10;7.30
19359;DHT22;9815;52.334;20.890;2023-07-08T15:17:14;29.60;7.60
19359;DHT22;9815;52.334;20.890;2023-07-08T15:19:44;29.60;8.00
19359;DHT22;9815;52.334;20.890;2023-07-08T15:22:12;29.90;8.40
19359;DHT22;9815;52.334;20.890;2023-07-08T15:24:41;29.80;7.90
19359;DHT22;9815;52.334;20.890;2023-07-08T15:27:12;29.90;7.70
19359;DHT22;9815;52.334;20.890;2023-07-08T15:29:41;29.40;8.20
19359;DHT22;9815;52.334;20.890;2023-07-08T15:32:13;29.60;7.90
19359;DHT22;9815;52.334;20.890;2023-07-08T15:35:07;29.90;8.00
19359;DHT22;9815;52.334;20.890;2023-07-08T15:37:37;29.90;8.00
19359;DHT22;9815;52.334;20.890;2023-07-08T15:40:07;29.90;8.10
19359;DHT22;9815;52.334;20.890;2023-07-08T15:42:37;29.70;7.90
19359;DHT22;9815;52.334;20.890;2023-07-08T15:45:12;29.50;8.50
19359;DHT22;9815;52.334;20.890;2023-07-08T15:47:41;29.40;8.00
19359;DHT22;9815;52.334;20.890;2023-07-08T15:50:12;29.60;8.90
19359;DHT22;9815;52.334;20.890;2023-07-08T15:52:40;29.70;8.70
19359;DHT22;9815;52.334;20.890;2023-07-08T15:55:10;29.80;7.70
19359;DHT22;9815;52.334;20.890;2023-07-08T15:57:44;29.80;7.90
19359;DHT22;9815;52.334;20.890;2023-07-08T16:00:18;29.80;8.40
19359;DHT22;9815;52.334;20.890;2023-07-08T16:02:50;29.80;8.50